RYR4322 LERS-EHEH
Flight info
| Callsign | RYR4322 |
|---|---|
| Flight time | 1h 50m |
| Altitude | 30000 |
| Route | ARBEK T113 RUTIP DCT OKABI/N0427F340 DCT TOU DCT ADABI DCT BOKNO UN858 VANAD UN874 ARSAF DCT EGOZE DCT CMB DCT VEKIN DCT ADUTO N873 FERDI Y18 DENUT |
| Aircraft | B38M/M-SADE3FGIJ1LRWYZ/SB1 |
Departure
| Time | 2026-05-09 14:27 |
|---|---|
| Airport | Reus Airport (LERS) |
Arrival
| Time | 2026-05-09 16:18 |
|---|---|
| Airport | Eindhoven Airport (EHEH) |
| Time | Latitude | Longitude | Altitude | Speed | Heading |
|---|---|---|---|---|---|
| 2026-05-09 13:53 | 41.14722 | 1.15752 | 297 ft | 0 kts | 339° |
| 2026-05-09 14:13 | 41.14710 | 1.15758 | 243 ft | 4 kts | 339° |
| 2026-05-09 14:14 | 41.14660 | 1.15839 | 243 ft | 0 kts | 249° |
| 2026-05-09 14:25 | 41.14654 | 1.15821 | 243 ft | 5 kts | 249° |
| 2026-05-09 14:25 | 41.14636 | 1.15757 | 243 ft | 11 kts | 249° |
| 2026-05-09 14:25 | 41.14596 | 1.15620 | 249 ft | 20 kts | 249° |
| 2026-05-09 14:26 | 41.14497 | 1.15589 | 249 ft | 16 kts | 159° |
| 2026-05-09 14:26 | 41.14432 | 1.15659 | 249 ft | 7 kts | 87° |
| 2026-05-09 14:26 | 41.14449 | 1.15719 | 249 ft | 11 kts | 69° |
| 2026-05-09 14:26 | 41.14573 | 1.16154 | 249 ft | 92 kts | 69° |
| 2026-05-09 14:27 | 41.14891 | 1.17247 | 250 ft | 159 kts | 70° |
| 2026-05-09 14:27 | 41.15336 | 1.18774 | 657 ft | 188 kts | 69° |
| 2026-05-09 14:27 | 41.15806 | 1.20373 | 1777 ft | 179 kts | 70° |
| 2026-05-09 14:27 | 41.16266 | 1.21965 | 2478 ft | 196 kts | 69° |
| 2026-05-09 14:28 | 41.16795 | 1.23773 | 2925 ft | 218 kts | 69° |
| 2026-05-09 14:28 | 41.17367 | 1.25718 | 3527 ft | 229 kts | 69° |
| 2026-05-09 14:28 | 41.17948 | 1.27692 | 4422 ft | 231 kts | 69° |
| 2026-05-09 14:28 | 41.18539 | 1.29693 | 5364 ft | 238 kts | 69° |
| 2026-05-09 14:29 | 41.19157 | 1.31781 | 6118 ft | 255 kts | 68° |
| 2026-05-09 14:29 | 41.19821 | 1.34031 | 7019 ft | 265 kts | 69° |
| 2026-05-09 14:29 | 41.20538 | 1.36308 | 7986 ft | 270 kts | 60° |
| 2026-05-09 14:29 | 41.21803 | 1.38131 | 8941 ft | 274 kts | 35° |
| 2026-05-09 14:30 | 41.22980 | 1.38862 | 9520 ft | 281 kts | 16° |
| 2026-05-09 14:30 | 41.25577 | 1.38510 | 10486 ft | 300 kts | 338° |
| 2026-05-09 14:30 | 41.27318 | 1.36839 | 11002 ft | 320 kts | 313° |
| 2026-05-09 14:30 | 41.28458 | 1.34280 | 11696 ft | 331 kts | 289° |
| 2026-05-09 14:31 | 41.28884 | 1.31239 | 12584 ft | 338 kts | 276° |
| 2026-05-09 14:31 | 41.29522 | 1.28232 | 13762 ft | 345 kts | 299° |
| 2026-05-09 14:31 | 41.31085 | 1.25799 | 14539 ft | 350 kts | 326° |
| 2026-05-09 14:31 | 41.33291 | 1.24530 | 15292 ft | 351 kts | 351° |
| 2026-05-09 14:32 | 41.35718 | 1.24648 | 15892 ft | 353 kts | 18° |
| 2026-05-09 14:32 | 41.38064 | 1.25678 | 16533 ft | 360 kts | 15° |
| 2026-05-09 14:32 | 41.40585 | 1.26063 | 17128 ft | 368 kts | 5° |
| 2026-05-09 14:32 | 41.43154 | 1.26408 | 17716 ft | 375 kts | 7° |
| 2026-05-09 14:33 | 41.45761 | 1.26827 | 18318 ft | 381 kts | 8° |
| 2026-05-09 14:33 | 41.48416 | 1.27278 | 18739 ft | 389 kts | 8° |
| 2026-05-09 14:33 | 41.51100 | 1.27750 | 18890 ft | 389 kts | 8° |
| 2026-05-09 14:33 | 41.53781 | 1.28234 | 18923 ft | 388 kts | 8° |
| 2026-05-09 14:34 | 41.56460 | 1.28724 | 18922 ft | 388 kts | 8° |
| 2026-05-09 14:34 | 41.59136 | 1.29215 | 18931 ft | 388 kts | 8° |
| 2026-05-09 14:34 | 41.61820 | 1.29703 | 19291 ft | 389 kts | 8° |
| 2026-05-09 14:34 | 41.64506 | 1.30204 | 19892 ft | 393 kts | 8° |
| 2026-05-09 14:35 | 41.67226 | 1.30701 | 20425 ft | 397 kts | 8° |
| 2026-05-09 14:35 | 41.69979 | 1.31208 | 20995 ft | 401 kts | 7° |
| 2026-05-09 14:35 | 41.72757 | 1.31720 | 21540 ft | 405 kts | 7° |
| 2026-05-09 14:35 | 41.75559 | 1.32235 | 22094 ft | 409 kts | 7° |
| 2026-05-09 14:36 | 41.78394 | 1.32758 | 22643 ft | 413 kts | 7° |
| 2026-05-09 14:36 | 41.81254 | 1.33286 | 23182 ft | 417 kts | 7° |
| 2026-05-09 14:36 | 41.84146 | 1.33820 | 23684 ft | 421 kts | 7° |
| 2026-05-09 14:36 | 41.87060 | 1.34359 | 24148 ft | 425 kts | 7° |
| 2026-05-09 14:37 | 41.89998 | 1.34903 | 24631 ft | 427 kts | 7° |
| 2026-05-09 14:37 | 41.92954 | 1.35451 | 25122 ft | 430 kts | 7° |
| 2026-05-09 14:37 | 41.95924 | 1.36003 | 25603 ft | 433 kts | 7° |
| 2026-05-09 14:37 | 41.98921 | 1.36559 | 26064 ft | 435 kts | 7° |
| 2026-05-09 14:38 | 42.01929 | 1.37119 | 26532 ft | 438 kts | 7° |
| 2026-05-09 14:38 | 42.04962 | 1.37685 | 26982 ft | 441 kts | 7° |
| 2026-05-09 14:38 | 42.08009 | 1.38253 | 27421 ft | 444 kts | 7° |
| 2026-05-09 14:38 | 42.11081 | 1.38826 | 27863 ft | 447 kts | 7° |
| 2026-05-09 14:39 | 42.14171 | 1.39404 | 28301 ft | 450 kts | 7° |
| 2026-05-09 14:39 | 42.17221 | 1.39975 | 28736 ft | 453 kts | 7° |
| 2026-05-09 14:39 | 42.20416 | 1.40574 | 29146 ft | 456 kts | 7° |
| 2026-05-09 14:39 | 42.23493 | 1.41153 | 29525 ft | 458 kts | 7° |
| 2026-05-09 14:40 | 42.26696 | 1.41753 | 29918 ft | 461 kts | 7° |
| 2026-05-09 14:40 | 42.29928 | 1.42362 | 30249 ft | 465 kts | 7° |
| 2026-05-09 14:40 | 42.32052 | 1.42762 | 30450 ft | 467 kts | 7° |
| 2026-05-09 14:40 | 42.36327 | 1.43569 | 30859 ft | 471 kts | 7° |
| 2026-05-09 14:41 | 42.38533 | 1.43985 | 31066 ft | 473 kts | 7° |
| 2026-05-09 14:41 | 42.41798 | 1.44602 | 31376 ft | 476 kts | 7° |
| 2026-05-09 14:41 | 42.45084 | 1.45223 | 31704 ft | 478 kts | 7° |
| 2026-05-09 14:41 | 42.48375 | 1.45846 | 31931 ft | 482 kts | 7° |
| 2026-05-09 14:42 | 42.51717 | 1.46480 | 32252 ft | 483 kts | 7° |
| 2026-05-09 14:42 | 42.55053 | 1.47114 | 32619 ft | 484 kts | 8° |
| 2026-05-09 14:42 | 42.59468 | 1.47953 | 33094 ft | 484 kts | 7° |
| 2026-05-09 14:42 | 42.61735 | 1.48210 | 33339 ft | 483 kts | 358° |
| 2026-05-09 14:43 | 42.65066 | 1.47752 | 33730 ft | 481 kts | 351° |
| 2026-05-09 14:43 | 42.68401 | 1.47240 | 33913 ft | 485 kts | 352° |
| 2026-05-09 14:43 | 42.75051 | 1.46199 | 33903 ft | 483 kts | 351° |
| 2026-05-09 14:44 | 42.81726 | 1.45124 | 33942 ft | 484 kts | 351° |
| 2026-05-09 14:44 | 42.88403 | 1.44044 | 33877 ft | 483 kts | 351° |
| 2026-05-09 14:45 | 42.95077 | 1.42964 | 33876 ft | 483 kts | 351° |
| 2026-05-09 14:45 | 43.01748 | 1.41880 | 33885 ft | 483 kts | 351° |
| 2026-05-09 14:46 | 43.08424 | 1.40794 | 33885 ft | 483 kts | 351° |
| 2026-05-09 14:46 | 43.15087 | 1.39708 | 33885 ft | 482 kts | 351° |
| 2026-05-09 14:47 | 43.21746 | 1.38619 | 33886 ft | 482 kts | 351° |
| 2026-05-09 14:47 | 43.28409 | 1.37529 | 33888 ft | 482 kts | 351° |
| 2026-05-09 14:48 | 43.35064 | 1.36436 | 33894 ft | 481 kts | 351° |
| 2026-05-09 14:48 | 43.41710 | 1.35343 | 33901 ft | 481 kts | 351° |
| 2026-05-09 14:49 | 43.48362 | 1.34246 | 33910 ft | 481 kts | 351° |
| 2026-05-09 14:49 | 43.54995 | 1.33150 | 33917 ft | 480 kts | 350° |
| 2026-05-09 14:50 | 43.61629 | 1.32052 | 33911 ft | 480 kts | 350° |
| 2026-05-09 14:50 | 43.68242 | 1.30888 | 33906 ft | 477 kts | 345° |
| 2026-05-09 14:51 | 43.74757 | 1.29122 | 33910 ft | 477 kts | 346° |
| 2026-05-09 14:51 | 43.81283 | 1.27429 | 33909 ft | 478 kts | 346° |
| 2026-05-09 14:52 | 43.87817 | 1.25743 | 33904 ft | 478 kts | 346° |
| 2026-05-09 14:52 | 43.94354 | 1.24053 | 33899 ft | 478 kts | 346° |
| 2026-05-09 14:53 | 44.00900 | 1.22357 | 33896 ft | 478 kts | 345° |
| 2026-05-09 14:53 | 44.07399 | 1.20670 | 33900 ft | 479 kts | 345° |
| 2026-05-09 14:54 | 44.13947 | 1.18966 | 33902 ft | 479 kts | 345° |
| 2026-05-09 14:54 | 44.20512 | 1.17253 | 33901 ft | 480 kts | 345° |
| 2026-05-09 14:55 | 44.27067 | 1.15540 | 33899 ft | 480 kts | 345° |
| 2026-05-09 14:55 | 44.33642 | 1.13817 | 33902 ft | 481 kts | 345° |
| 2026-05-09 14:56 | 44.40208 | 1.12093 | 33899 ft | 481 kts | 345° |
| 2026-05-09 14:56 | 44.46794 | 1.10360 | 33902 ft | 481 kts | 345° |
| 2026-05-09 14:57 | 44.53380 | 1.08622 | 33900 ft | 481 kts | 345° |
| 2026-05-09 14:57 | 44.59962 | 1.06881 | 33900 ft | 482 kts | 345° |
| 2026-05-09 14:58 | 44.66544 | 1.05137 | 33899 ft | 482 kts | 345° |
| 2026-05-09 14:58 | 44.73133 | 1.03386 | 33898 ft | 482 kts | 345° |
| 2026-05-09 14:59 | 44.79719 | 1.01633 | 33900 ft | 482 kts | 344° |
| 2026-05-09 14:59 | 44.86303 | 0.99876 | 33894 ft | 481 kts | 344° |
| 2026-05-09 15:00 | 44.92883 | 0.98116 | 33896 ft | 481 kts | 344° |
| 2026-05-09 15:00 | 44.99454 | 0.96353 | 33895 ft | 480 kts | 344° |
| 2026-05-09 15:01 | 45.09308 | 0.93703 | 33884 ft | 480 kts | 343° |
| 2026-05-09 15:02 | 45.15830 | 0.91944 | 33886 ft | 480 kts | 343° |
| 2026-05-09 15:02 | 45.22385 | 0.90173 | 33888 ft | 480 kts | 343° |
| 2026-05-09 15:03 | 45.28943 | 0.88396 | 33887 ft | 480 kts | 343° |
| 2026-05-09 15:03 | 45.35493 | 0.86617 | 33890 ft | 479 kts | 343° |
| 2026-05-09 15:04 | 45.42045 | 0.84833 | 33896 ft | 479 kts | 343° |
| 2026-05-09 15:06 | 45.68267 | 0.77652 | 33928 ft | 480 kts | 343° |
| 2026-05-09 15:06 | 45.74825 | 0.75845 | 33919 ft | 479 kts | 342° |
| 2026-05-09 15:07 | 45.81376 | 0.74036 | 33923 ft | 480 kts | 342° |
| 2026-05-09 15:07 | 45.87934 | 0.72221 | 33920 ft | 480 kts | 342° |
| 2026-05-09 15:08 | 45.94488 | 0.70402 | 33909 ft | 479 kts | 342° |
| 2026-05-09 15:08 | 46.04305 | 0.67670 | 33913 ft | 479 kts | 342° |
| 2026-05-09 15:10 | 46.30406 | 0.60357 | 33910 ft | 478 kts | 341° |
| 2026-05-09 15:11 | 46.36931 | 0.58520 | 33908 ft | 477 kts | 341° |
| 2026-05-09 15:11 | 46.43443 | 0.56680 | 33913 ft | 476 kts | 341° |
| 2026-05-09 15:12 | 46.49947 | 0.54839 | 33912 ft | 476 kts | 341° |
| 2026-05-09 15:12 | 46.56528 | 0.53586 | 33893 ft | 488 kts | 359° |
| 2026-05-09 15:13 | 46.63265 | 0.55479 | 33899 ft | 495 kts | 7° |
| 2026-05-09 15:13 | 46.69989 | 0.57650 | 33908 ft | 495 kts | 8° |
| 2026-05-09 15:14 | 46.76700 | 0.59863 | 33902 ft | 494 kts | 8° |
| 2026-05-09 15:14 | 46.83395 | 0.62079 | 33903 ft | 493 kts | 8° |
| 2026-05-09 15:15 | 46.88942 | 0.63919 | 33900 ft | 492 kts | 8° |
| 2026-05-09 15:15 | 46.96740 | 0.66513 | 33901 ft | 491 kts | 8° |
| 2026-05-09 15:16 | 47.03394 | 0.68730 | 33903 ft | 490 kts | 7° |
| 2026-05-09 15:16 | 47.06732 | 0.69405 | 33902 ft | 480 kts | 356° |
| 2026-05-09 15:16 | 47.10067 | 0.69717 | 33898 ft | 481 kts | 358° |
| 2026-05-09 15:17 | 47.16740 | 0.70419 | 33913 ft | 480 kts | 358° |
| 2026-05-09 15:17 | 47.23383 | 0.71113 | 33923 ft | 478 kts | 358° |
| 2026-05-09 15:18 | 47.29968 | 0.71802 | 33935 ft | 477 kts | 358° |
| 2026-05-09 15:18 | 47.36586 | 0.72496 | 33940 ft | 476 kts | 358° |
| 2026-05-09 15:19 | 47.43187 | 0.73190 | 33944 ft | 475 kts | 358° |
| 2026-05-09 15:19 | 47.49778 | 0.74081 | 33927 ft | 479 kts | 9° |
| 2026-05-09 15:20 | 47.59340 | 0.78675 | 33930 ft | 482 kts | 14° |
| 2026-05-09 15:21 | 47.65696 | 0.81798 | 33922 ft | 480 kts | 14° |
| 2026-05-09 15:21 | 47.72025 | 0.84923 | 33918 ft | 478 kts | 14° |
| 2026-05-09 15:22 | 47.78329 | 0.88044 | 33916 ft | 477 kts | 14° |
| 2026-05-09 15:22 | 47.84616 | 0.91180 | 33915 ft | 476 kts | 14° |
| 2026-05-09 15:23 | 47.90869 | 0.94336 | 33918 ft | 474 kts | 14° |
| 2026-05-09 15:23 | 47.97106 | 0.97489 | 33917 ft | 473 kts | 14° |
| 2026-05-09 15:24 | 48.03339 | 1.00649 | 33929 ft | 473 kts | 14° |
| 2026-05-09 15:24 | 48.09567 | 1.03814 | 33922 ft | 473 kts | 14° |
| 2026-05-09 15:25 | 48.15789 | 1.06983 | 33927 ft | 472 kts | 14° |
| 2026-05-09 15:25 | 48.22007 | 1.10154 | 33929 ft | 472 kts | 14° |
| 2026-05-09 15:26 | 48.31322 | 1.14902 | 33935 ft | 471 kts | 13° |
| 2026-05-09 15:26 | 48.37523 | 1.18073 | 33940 ft | 470 kts | 13° |
| 2026-05-09 15:27 | 48.43679 | 1.21229 | 33937 ft | 470 kts | 13° |
| 2026-05-09 15:27 | 48.49905 | 1.24429 | 33941 ft | 470 kts | 13° |
| 2026-05-09 15:28 | 48.55042 | 1.27064 | 33943 ft | 469 kts | 12° |
| 2026-05-09 15:28 | 48.62236 | 1.30679 | 33948 ft | 469 kts | 12° |
| 2026-05-09 15:29 | 48.68364 | 1.33774 | 33951 ft | 468 kts | 12° |
| 2026-05-09 15:29 | 48.74583 | 1.36923 | 33954 ft | 467 kts | 12° |
| 2026-05-09 15:30 | 48.79749 | 1.39545 | 33961 ft | 467 kts | 12° |
| 2026-05-09 15:30 | 48.85897 | 1.42673 | 33961 ft | 466 kts | 12° |
| 2026-05-09 15:31 | 48.92032 | 1.45803 | 33962 ft | 465 kts | 12° |
| 2026-05-09 15:31 | 48.97878 | 1.49909 | 33949 ft | 476 kts | 35° |
| 2026-05-09 15:32 | 49.02546 | 1.57277 | 33956 ft | 482 kts | 45° |
| 2026-05-09 15:32 | 49.07030 | 1.64869 | 33960 ft | 481 kts | 46° |
| 2026-05-09 15:33 | 49.11447 | 1.72450 | 33960 ft | 480 kts | 46° |
| 2026-05-09 15:33 | 49.15875 | 1.80078 | 33966 ft | 480 kts | 46° |
| 2026-05-09 15:34 | 49.20291 | 1.87710 | 33964 ft | 479 kts | 46° |
| 2026-05-09 15:34 | 49.24694 | 1.95344 | 33965 ft | 478 kts | 46° |
| 2026-05-09 15:35 | 49.29093 | 2.02988 | 33987 ft | 478 kts | 46° |
| 2026-05-09 15:35 | 49.33481 | 2.10634 | 33991 ft | 477 kts | 46° |
| 2026-05-09 15:36 | 49.37851 | 2.18278 | 33996 ft | 477 kts | 46° |
| 2026-05-09 15:36 | 49.42216 | 2.25932 | 33991 ft | 476 kts | 46° |
| 2026-05-09 15:37 | 49.46567 | 2.33584 | 33988 ft | 475 kts | 46° |
| 2026-05-09 15:37 | 49.50899 | 2.41225 | 33988 ft | 474 kts | 46° |
| 2026-05-09 15:38 | 49.55317 | 2.48709 | 33971 ft | 467 kts | 35° |
| 2026-05-09 15:38 | 49.60705 | 2.54129 | 33981 ft | 463 kts | 28° |
| 2026-05-09 15:39 | 49.66139 | 2.59450 | 34003 ft | 462 kts | 28° |
| 2026-05-09 15:39 | 49.71579 | 2.64734 | 34008 ft | 462 kts | 28° |
| 2026-05-09 15:40 | 49.77016 | 2.70024 | 34013 ft | 462 kts | 28° |
| 2026-05-09 15:40 | 49.82446 | 2.75321 | 34016 ft | 461 kts | 28° |
| 2026-05-09 15:41 | 49.87860 | 2.80617 | 34019 ft | 460 kts | 28° |
| 2026-05-09 15:41 | 49.92963 | 2.85622 | 34017 ft | 459 kts | 29° |
| 2026-05-09 15:42 | 49.98358 | 2.90926 | 34023 ft | 459 kts | 29° |
| 2026-05-09 15:42 | 50.03747 | 2.96238 | 34017 ft | 458 kts | 30° |
| 2026-05-09 15:43 | 50.09130 | 3.01559 | 34017 ft | 458 kts | 30° |
| 2026-05-09 15:43 | 50.14500 | 3.06882 | 34021 ft | 457 kts | 30° |
| 2026-05-09 15:44 | 50.19858 | 3.12206 | 34013 ft | 456 kts | 31° |
| 2026-05-09 15:44 | 50.25368 | 3.16941 | 33838 ft | 445 kts | 22° |
| 2026-05-09 15:45 | 50.28158 | 3.18884 | 33267 ft | 444 kts | 22° |
| 2026-05-09 15:45 | 50.31015 | 3.20889 | 32656 ft | 444 kts | 22° |
| 2026-05-09 15:45 | 50.33786 | 3.22834 | 32190 ft | 441 kts | 21° |
| 2026-05-09 15:45 | 50.36571 | 3.24792 | 31747 ft | 437 kts | 21° |
| 2026-05-09 15:46 | 50.39371 | 3.26762 | 31293 ft | 434 kts | 21° |
| 2026-05-09 15:46 | 50.42030 | 3.28797 | 30795 ft | 433 kts | 23° |
| 2026-05-09 15:46 | 50.44773 | 3.30941 | 30305 ft | 431 kts | 23° |
| 2026-05-09 15:46 | 50.47454 | 3.33020 | 29843 ft | 428 kts | 22° |
| 2026-05-09 15:47 | 50.50082 | 3.35058 | 29375 ft | 425 kts | 23° |
| 2026-05-09 15:47 | 50.52797 | 3.36993 | 28845 ft | 422 kts | 20° |
| 2026-05-09 15:47 | 50.55443 | 3.38785 | 28439 ft | 417 kts | 20° |
| 2026-05-09 15:47 | 50.58089 | 3.40602 | 28047 ft | 413 kts | 21° |
| 2026-05-09 15:48 | 50.60712 | 3.42413 | 27615 ft | 410 kts | 21° |
| 2026-05-09 15:48 | 50.62551 | 3.43685 | 27320 ft | 408 kts | 21° |
| 2026-05-09 15:48 | 50.65225 | 3.45538 | 26889 ft | 406 kts | 21° |
| 2026-05-09 15:48 | 50.67801 | 3.47325 | 26468 ft | 403 kts | 21° |
| 2026-05-09 15:49 | 50.70362 | 3.49104 | 26060 ft | 401 kts | 21° |
| 2026-05-09 15:49 | 50.72906 | 3.50873 | 25646 ft | 399 kts | 22° |
| 2026-05-09 15:49 | 50.75443 | 3.52639 | 25228 ft | 397 kts | 22° |
| 2026-05-09 15:49 | 50.77965 | 3.54398 | 24830 ft | 396 kts | 22° |
| 2026-05-09 15:50 | 50.80477 | 3.56150 | 24435 ft | 394 kts | 22° |
| 2026-05-09 15:50 | 50.82983 | 3.57902 | 24028 ft | 393 kts | 22° |
| 2026-05-09 15:50 | 50.85480 | 3.59649 | 23608 ft | 392 kts | 22° |
| 2026-05-09 15:50 | 50.87969 | 3.61392 | 23159 ft | 390 kts | 22° |
| 2026-05-09 15:51 | 50.90455 | 3.63085 | 22710 ft | 388 kts | 18° |
| 2026-05-09 15:51 | 50.93079 | 3.63824 | 22253 ft | 381 kts | 358° |
| 2026-05-09 15:51 | 50.95707 | 3.63952 | 21922 ft | 376 kts | 0° |
| 2026-05-09 15:51 | 50.98314 | 3.64135 | 21553 ft | 373 kts | 360° |
| 2026-05-09 15:52 | 51.03464 | 3.64471 | 20794 ft | 368 kts | 359° |
| 2026-05-09 15:52 | 51.06014 | 3.64635 | 20414 ft | 366 kts | 359° |
| 2026-05-09 15:52 | 51.08544 | 3.64797 | 20038 ft | 363 kts | 359° |
| 2026-05-09 15:53 | 51.11066 | 3.64957 | 19668 ft | 361 kts | 359° |
| 2026-05-09 15:53 | 51.13572 | 3.65117 | 19299 ft | 359 kts | 359° |
| 2026-05-09 15:53 | 51.16063 | 3.65277 | 18931 ft | 358 kts | 359° |
| 2026-05-09 15:53 | 51.18540 | 3.65435 | 18550 ft | 356 kts | 359° |
| 2026-05-09 15:54 | 51.21014 | 3.65594 | 18174 ft | 354 kts | 359° |
| 2026-05-09 15:54 | 51.23439 | 3.66169 | 17863 ft | 353 kts | 17° |
| 2026-05-09 15:54 | 51.25566 | 3.68033 | 17677 ft | 348 kts | 35° |
| 2026-05-09 15:54 | 51.27509 | 3.70266 | 17443 ft | 341 kts | 33° |
| 2026-05-09 15:55 | 51.29423 | 3.72435 | 17224 ft | 335 kts | 34° |
| 2026-05-09 15:55 | 51.31302 | 3.74581 | 16995 ft | 329 kts | 34° |
| 2026-05-09 15:55 | 51.32827 | 3.76330 | 16807 ft | 325 kts | 34° |
| 2026-05-09 15:55 | 51.34705 | 3.78485 | 16581 ft | 324 kts | 34° |
| 2026-05-09 15:56 | 51.36537 | 3.80594 | 16345 ft | 323 kts | 34° |
| 2026-05-09 15:56 | 51.38361 | 3.82695 | 16122 ft | 322 kts | 34° |
| 2026-05-09 15:56 | 51.40163 | 3.84818 | 15884 ft | 323 kts | 39° |
| 2026-05-09 15:56 | 51.41559 | 3.87604 | 15646 ft | 321 kts | 64° |
| 2026-05-09 15:57 | 51.42277 | 3.90963 | 15452 ft | 319 kts | 76° |
| 2026-05-09 15:57 | 51.42839 | 3.94396 | 15235 ft | 319 kts | 76° |
| 2026-05-09 15:57 | 51.43385 | 3.97828 | 15016 ft | 317 kts | 77° |
| 2026-05-09 15:57 | 51.43917 | 4.01255 | 14794 ft | 316 kts | 77° |
| 2026-05-09 15:58 | 51.44439 | 4.04665 | 14581 ft | 315 kts | 77° |
| 2026-05-09 15:58 | 51.44954 | 4.08068 | 14354 ft | 313 kts | 77° |
| 2026-05-09 15:58 | 51.45464 | 4.11453 | 14134 ft | 312 kts | 77° |
| 2026-05-09 15:58 | 51.45969 | 4.14821 | 13918 ft | 310 kts | 77° |
| 2026-05-09 15:59 | 51.46473 | 4.18184 | 13691 ft | 309 kts | 77° |
| 2026-05-09 15:59 | 51.46971 | 4.21521 | 13458 ft | 307 kts | 77° |
| 2026-05-09 15:59 | 51.47466 | 4.24844 | 13253 ft | 306 kts | 77° |
| 2026-05-09 15:59 | 51.47960 | 4.28162 | 13051 ft | 306 kts | 77° |
| 2026-05-09 16:00 | 51.48445 | 4.31432 | 12821 ft | 306 kts | 77° |
| 2026-05-09 16:00 | 51.48611 | 4.32554 | 12751 ft | 306 kts | 77° |
| 2026-05-09 16:00 | 51.49420 | 4.38030 | 12375 ft | 301 kts | 77° |
| 2026-05-09 16:00 | 51.49900 | 4.41286 | 12177 ft | 298 kts | 77° |
| 2026-05-09 16:01 | 51.50380 | 4.44552 | 11983 ft | 295 kts | 77° |
| 2026-05-09 16:01 | 51.50843 | 4.47708 | 11784 ft | 294 kts | 77° |
| 2026-05-09 16:01 | 51.51310 | 4.50890 | 11580 ft | 292 kts | 77° |
| 2026-05-09 16:01 | 51.51873 | 4.54008 | 11360 ft | 291 kts | 64° |
| 2026-05-09 16:02 | 51.52981 | 4.56708 | 11166 ft | 289 kts | 54° |
| 2026-05-09 16:02 | 51.55314 | 4.61973 | 10784 ft | 289 kts | 54° |
| 2026-05-09 16:02 | 51.56476 | 4.64590 | 10582 ft | 287 kts | 54° |
| 2026-05-09 16:03 | 51.57624 | 4.67172 | 10397 ft | 285 kts | 54° |
| 2026-05-09 16:03 | 51.58392 | 4.68899 | 10269 ft | 284 kts | 54° |
| 2026-05-09 16:03 | 51.58489 | 4.69118 | 10257 ft | 283 kts | 54° |
| 2026-05-09 16:03 | 51.58529 | 4.69209 | 10257 ft | 283 kts | 54° |
| 2026-05-09 16:04 | 51.59431 | 4.71239 | 10094 ft | 282 kts | 54° |
| 2026-05-09 16:04 | 51.60567 | 4.73799 | 9894 ft | 280 kts | 54° |
| 2026-05-09 16:04 | 51.61695 | 4.76340 | 9680 ft | 278 kts | 54° |
| 2026-05-09 16:04 | 51.62461 | 4.78070 | 9543 ft | 278 kts | 54° |
| 2026-05-09 16:05 | 51.63580 | 4.80598 | 9344 ft | 277 kts | 54° |
| 2026-05-09 16:05 | 51.64696 | 4.83119 | 9158 ft | 277 kts | 54° |
| 2026-05-09 16:05 | 51.65791 | 4.85598 | 8956 ft | 276 kts | 54° |
| 2026-05-09 16:05 | 51.66922 | 4.88159 | 8776 ft | 275 kts | 54° |
| 2026-05-09 16:06 | 51.67945 | 4.90755 | 8563 ft | 275 kts | 68° |
| 2026-05-09 16:06 | 51.68245 | 4.93753 | 8342 ft | 272 kts | 96° |
| 2026-05-09 16:06 | 51.67735 | 4.96655 | 8174 ft | 270 kts | 114° |
| 2026-05-09 16:06 | 51.66990 | 4.99435 | 8006 ft | 271 kts | 114° |
| 2026-05-09 16:07 | 51.66231 | 5.02211 | 7816 ft | 270 kts | 115° |
| 2026-05-09 16:07 | 51.65464 | 5.04970 | 7626 ft | 270 kts | 115° |
| 2026-05-09 16:07 | 51.64693 | 5.07719 | 7434 ft | 269 kts | 115° |
| 2026-05-09 16:07 | 51.63897 | 5.10429 | 7235 ft | 267 kts | 122° |
| 2026-05-09 16:08 | 51.62718 | 5.12704 | 7050 ft | 264 kts | 135° |
| 2026-05-09 16:08 | 51.61451 | 5.14845 | 6872 ft | 264 kts | 135° |
| 2026-05-09 16:08 | 51.60187 | 5.16982 | 6706 ft | 263 kts | 135° |
| 2026-05-09 16:08 | 51.58924 | 5.19111 | 6516 ft | 263 kts | 135° |
| 2026-05-09 16:09 | 51.57666 | 5.21237 | 6315 ft | 262 kts | 135° |
| 2026-05-09 16:09 | 51.56409 | 5.23351 | 6120 ft | 261 kts | 135° |
| 2026-05-09 16:09 | 51.55155 | 5.25462 | 5943 ft | 261 kts | 135° |
| 2026-05-09 16:09 | 51.53902 | 5.27565 | 5747 ft | 260 kts | 134° |
| 2026-05-09 16:10 | 51.52654 | 5.29662 | 5576 ft | 259 kts | 134° |
| 2026-05-09 16:10 | 51.51299 | 5.31518 | 5364 ft | 255 kts | 152° |
| 2026-05-09 16:10 | 51.49625 | 5.32234 | 5165 ft | 248 kts | 180° |
| 2026-05-09 16:10 | 51.47973 | 5.31660 | 4992 ft | 241 kts | 206° |
| 2026-05-09 16:11 | 51.46667 | 5.30063 | 4835 ft | 234 kts | 230° |
| 2026-05-09 16:11 | 51.45902 | 5.27823 | 4654 ft | 228 kts | 253° |
| 2026-05-09 16:11 | 51.45531 | 5.25381 | 4509 ft | 225 kts | 257° |
| 2026-05-09 16:11 | 51.45200 | 5.22928 | 4343 ft | 226 kts | 255° |
| 2026-05-09 16:12 | 51.44431 | 5.20781 | 4139 ft | 224 kts | 222° |
| 2026-05-09 16:12 | 51.43189 | 5.19272 | 3993 ft | 224 kts | 215° |
| 2026-05-09 16:12 | 51.41917 | 5.17814 | 3831 ft | 225 kts | 215° |
| 2026-05-09 16:12 | 51.41070 | 5.16853 | 3730 ft | 225 kts | 214° |
| 2026-05-09 16:13 | 51.39741 | 5.15534 | 3544 ft | 225 kts | 198° |
| 2026-05-09 16:13 | 51.38223 | 5.15371 | 3357 ft | 218 kts | 164° |
| 2026-05-09 16:13 | 51.36575 | 5.17092 | 3199 ft | 216 kts | 129° |
| 2026-05-09 16:13 | 51.35953 | 5.18363 | 3163 ft | 213 kts | 127° |
| 2026-05-09 16:14 | 51.35065 | 5.20238 | 2963 ft | 210 kts | 126° |
| 2026-05-09 16:14 | 51.34266 | 5.22117 | 2737 ft | 207 kts | 112° |
| 2026-05-09 16:14 | 51.34178 | 5.24347 | 2494 ft | 202 kts | 74° |
| 2026-05-09 16:14 | 51.34875 | 5.26192 | 2268 ft | 191 kts | 41° |
| 2026-05-09 16:15 | 51.35955 | 5.27369 | 2067 ft | 185 kts | 33° |
| 2026-05-09 16:15 | 51.36992 | 5.28478 | 1788 ft | 172 kts | 35° |
| 2026-05-09 16:15 | 51.37932 | 5.29534 | 1570 ft | 162 kts | 36° |
| 2026-05-09 16:15 | 51.38849 | 5.30560 | 1355 ft | 158 kts | 35° |
| 2026-05-09 16:16 | 51.39713 | 5.31524 | 1171 ft | 148 kts | 36° |
| 2026-05-09 16:16 | 51.40542 | 5.32447 | 940 ft | 143 kts | 35° |
| 2026-05-09 16:16 | 51.41355 | 5.33360 | 764 ft | 143 kts | 35° |
| 2026-05-09 16:16 | 51.42169 | 5.34273 | 577 ft | 143 kts | 35° |
| 2026-05-09 16:17 | 51.42984 | 5.35186 | 388 ft | 143 kts | 35° |
| 2026-05-09 16:17 | 51.43804 | 5.36101 | 210 ft | 143 kts | 35° |
| 2026-05-09 16:17 | 51.44595 | 5.36985 | 76 ft | 120 kts | 35° |
| 2026-05-09 16:17 | 51.45068 | 5.37518 | 74 ft | 51 kts | 35° |
| 2026-05-09 16:18 | 51.45235 | 5.37703 | 70 ft | 24 kts | 34° |
| 2026-05-09 16:18 | 51.45382 | 5.37863 | 85 ft | 28 kts | 34° |
| 2026-05-09 16:18 | 51.45554 | 5.38051 | 82 ft | 32 kts | 34° |
| 2026-05-09 16:18 | 51.45738 | 5.38261 | 70 ft | 33 kts | 37° |
| 2026-05-09 16:19 | 51.45891 | 5.38440 | 82 ft | 20 kts | 40° |
| 2026-05-09 16:19 | 51.45884 | 5.38574 | 75 ft | 14 kts | 126° |
| 2026-05-09 16:19 | 51.45817 | 5.38718 | 77 ft | 17 kts | 126° |
| 2026-05-09 16:19 | 51.45785 | 5.38856 | 77 ft | 12 kts | 110° |
| 2026-05-09 16:20 | 51.45754 | 5.38933 | 67 ft | 2 kts | 124° |
| 2026-05-09 16:20 | 51.45752 | 5.38938 | 75 ft | 0 kts | 124° |